Terminal Aerodrome Forecast
Issued by NWS

Current Version | Previous Version | Text Only | Print | Product List | Glossary On
Versions: 1 2 3 4 5 6 7 8 9 10 11 12 13 14 15 16 17 18
000
FTUS42 TJSJ 252320
TAFJSJ
TAF
TJSJ 252320Z 2600/2624 08009KT P6SM VCSH SCT025 BKN070
      TEMPO 2600/2604 VRB12KT 5SM SHRA BKN025 OVC060
     FM260600 09006KT P6SM VCSH SCT025 SCT050 BKN090
     FM261450 07013KT P6SM FEW025 SCT060 SCT090=

USA.gov is the U.S. government's official web portal to all federal, state and local government web resources and services.